createdAt,value
2018-11-26T00:01:22.524Z,44.20
2018-11-26T00:03:49.611Z,44.20
2018-11-26T00:06:17.333Z,44.10
2018-11-26T00:08:44.419Z,44.70
2018-11-26T00:11:25.424Z,44.00
2018-11-26T00:13:52.488Z,44.00
2018-11-26T00:16:19.583Z,44.00
2018-11-26T00:18:46.696Z,44.00
2018-11-26T00:21:13.815Z,44.00
2018-11-26T00:23:40.907Z,44.00
2018-11-26T00:26:08.005Z,43.90
2018-11-26T00:28:35.095Z,43.90
2018-11-26T00:31:02.205Z,43.90
2018-11-26T00:33:29.307Z,43.90
2018-11-26T00:35:56.407Z,44.00
2018-11-26T00:38:23.532Z,44.00
2018-11-26T00:40:50.600Z,44.00
2018-11-26T00:43:17.692Z,43.90
2018-11-26T00:45:44.807Z,44.00
2018-11-26T00:48:11.899Z,44.00
2018-11-26T00:50:38.984Z,44.00
2018-11-26T00:53:06.419Z,44.00
2018-11-26T00:55:33.504Z,44.00
2018-11-26T00:58:00.591Z,44.00
2018-11-26T01:00:27.659Z,44.00
2018-11-26T01:02:54.769Z,44.00
2018-11-26T01:05:32.617Z,44.00
2018-11-26T01:07:59.727Z,44.00
2018-11-26T01:10:26.813Z,44.00
2018-11-26T01:12:53.903Z,44.00
2018-11-26T01:15:20.989Z,44.00
2018-11-26T01:17:48.076Z,44.00
2018-11-26T01:20:15.172Z,44.00
2018-11-26T01:22:42.283Z,44.00
2018-11-26T01:25:09.355Z,44.00
2018-11-26T01:27:36.447Z,44.00
2018-11-26T01:30:03.564Z,44.00
2018-11-26T01:32:30.648Z,44.00
2018-11-26T01:34:57.748Z,43.90
2018-11-26T01:37:24.855Z,43.90
2018-11-26T01:39:51.929Z,43.90
2018-11-26T01:42:19.020Z,44.00
2018-11-26T01:44:46.112Z,43.90
2018-11-26T01:47:13.204Z,43.80
2018-11-26T01:49:40.305Z,44.40
2018-11-26T01:52:07.399Z,43.80
2018-11-26T01:54:34.492Z,43.80
2018-11-26T01:57:01.573Z,43.80
2018-11-26T01:59:28.647Z,43.70
2018-11-26T02:01:55.725Z,43.70
2018-11-26T02:04:22.783Z,43.60
2018-11-26T02:06:49.903Z,43.60
2018-11-26T02:09:16.992Z,43.60
2018-11-26T02:11:44.073Z,43.50
2018-11-26T02:14:11.127Z,43.50
2018-11-26T02:16:38.247Z,43.50
2018-11-26T02:19:05.348Z,43.50
2018-11-26T02:21:32.440Z,43.50
2018-11-26T02:23:59.516Z,43.40
2018-11-26T02:26:26.651Z,43.40
2018-11-26T02:28:53.724Z,43.50
2018-11-26T02:31:20.936Z,43.40
2018-11-26T02:33:48.024Z,43.40
2018-11-26T02:36:15.116Z,43.40
2018-11-26T02:38:42.196Z,43.40
2018-11-26T02:41:09.255Z,43.40
2018-11-26T02:43:36.355Z,43.40
2018-11-26T02:46:03.440Z,43.30
2018-11-26T02:48:30.498Z,43.30
2018-11-26T02:50:57.587Z,43.40
2018-11-26T02:53:24.691Z,43.40
2018-11-26T02:55:51.767Z,43.30
2018-11-26T02:58:18.874Z,43.30
2018-11-26T03:00:46.177Z,43.30
2018-11-26T03:03:14.191Z,43.40
2018-11-26T03:05:41.317Z,43.40
2018-11-26T03:08:08.404Z,43.30
2018-11-26T03:10:35.492Z,43.30
2018-11-26T03:13:02.584Z,43.30
2018-11-26T03:15:29.667Z,43.40
2018-11-26T03:17:56.766Z,43.40
2018-11-26T03:20:23.860Z,43.40
2018-11-26T03:22:50.934Z,43.40
2018-11-26T03:25:18.008Z,43.40
2018-11-26T03:27:45.140Z,43.40
2018-11-26T03:30:14.344Z,43.40
2018-11-26T03:32:41.406Z,43.40
2018-11-26T03:35:09.113Z,43.40
2018-11-26T03:37:36.191Z,43.40
2018-11-26T03:40:08.133Z,43.40
2018-11-26T03:42:35.243Z,43.40
2018-11-26T03:45:02.351Z,43.40
2018-11-26T03:47:29.440Z,43.40
2018-11-26T03:49:56.512Z,43.50
2018-11-26T03:52:23.628Z,44.10
2018-11-26T03:54:50.703Z,43.50
2018-11-26T03:57:17.813Z,43.40
2018-11-26T03:59:44.879Z,43.40
2018-11-26T04:02:11.964Z,43.50
2018-11-26T04:04:39.037Z,43.40
2018-11-26T04:07:06.170Z,43.40
2018-11-26T04:09:33.265Z,43.40
2018-11-26T04:12:00.351Z,43.40
2018-11-26T04:14:27.423Z,43.40
2018-11-26T04:16:54.544Z,43.40
2018-11-26T04:19:21.648Z,43.30
2018-11-26T04:21:48.731Z,43.30
2018-11-26T04:24:15.825Z,43.30
2018-11-26T04:26:42.897Z,43.30
2018-11-26T04:29:10.019Z,43.30
2018-11-26T04:31:37.099Z,43.20
2018-11-26T04:34:04.183Z,43.30
2018-11-26T04:36:31.255Z,43.20
2018-11-26T04:38:58.357Z,43.20
2018-11-26T04:41:25.450Z,43.20
2018-11-26T04:43:52.536Z,43.20
2018-11-26T04:46:19.621Z,43.20
2018-11-26T04:48:46.707Z,43.20
2018-11-26T04:51:13.812Z,43.20
2018-11-26T04:53:40.887Z,43.20
2018-11-26T04:56:08.005Z,43.20
2018-11-26T04:58:35.069Z,43.20
2018-11-26T05:01:02.143Z,43.20
2018-11-26T05:03:29.219Z,43.20
2018-11-26T05:05:56.354Z,43.20
2018-11-26T05:08:23.435Z,43.20
2018-11-26T05:10:51.263Z,43.30
2018-11-26T05:13:18.271Z,43.20
2018-11-26T05:15:45.333Z,43.20
2018-11-26T05:18:12.422Z,43.30
2018-11-26T05:20:39.515Z,43.20
2018-11-26T05:23:06.615Z,43.20
2018-11-26T05:25:33.719Z,43.90
2018-11-26T05:28:00.800Z,43.20
2018-11-26T05:30:27.869Z,43.20
2018-11-26T05:32:54.973Z,43.20
2018-11-26T05:35:22.066Z,43.20
2018-11-26T05:37:49.153Z,43.20
2018-11-26T05:40:16.268Z,43.20
2018-11-26T05:42:43.367Z,43.20
2018-11-26T05:45:14.153Z,43.10
2018-11-26T05:47:41.256Z,43.10
2018-11-26T05:50:11.225Z,43.10
2018-11-26T05:52:38.977Z,43.10
2018-11-26T05:55:07.592Z,43.10
2018-11-26T05:57:34.672Z,43.10
2018-11-26T06:00:01.788Z,43.10
2018-11-26T06:02:28.900Z,43.10
2018-11-26T06:04:55.971Z,43.00
2018-11-26T06:07:23.061Z,43.00
2018-11-26T06:09:50.137Z,43.00
2018-11-26T06:12:17.206Z,43.00
2018-11-26T06:14:44.287Z,43.00
2018-11-26T06:17:11.368Z,43.10
2018-11-26T06:19:38.466Z,43.00
2018-11-26T06:22:05.576Z,43.00
2018-11-26T06:24:32.687Z,43.10
2018-11-26T06:26:59.760Z,43.00
2018-11-26T06:29:33.484Z,43.00
2018-11-26T06:32:00.544Z,43.00
2018-11-26T06:34:27.616Z,43.10
2018-11-26T06:36:54.732Z,43.00
2018-11-26T06:39:21.827Z,43.10
2018-11-26T06:41:48.924Z,43.10
2018-11-26T06:44:16.002Z,43.10
2018-11-26T06:46:43.072Z,43.10
2018-11-26T06:49:10.165Z,43.10
2018-11-26T06:51:37.323Z,43.10
2018-11-26T06:54:04.796Z,43.10
2018-11-26T06:56:31.904Z,43.10
2018-11-26T06:58:58.969Z,43.10
2018-11-26T07:01:26.085Z,43.10
2018-11-26T07:03:53.176Z,43.10
2018-11-26T07:06:20.275Z,43.10
2018-11-26T07:08:47.343Z,43.10
2018-11-26T07:11:14.426Z,43.10
2018-11-26T07:13:41.517Z,43.10
2018-11-26T07:16:08.616Z,43.10
2018-11-26T07:18:35.689Z,43.20
2018-11-26T07:21:02.781Z,43.80
2018-11-26T07:23:29.866Z,43.20
2018-11-26T07:25:56.932Z,43.20
2018-11-26T07:30:57.708Z,43.30
2018-11-26T07:33:24.812Z,43.30
2018-11-26T07:35:51.901Z,43.30
2018-11-26T07:38:18.956Z,43.30
2018-11-26T07:40:46.044Z,43.30
2018-11-26T07:43:13.431Z,43.40
2018-11-26T07:45:40.523Z,43.30
2018-11-26T07:48:08.636Z,43.30
2018-11-26T07:50:36.195Z,43.30
2018-11-26T07:53:04.141Z,43.30
2018-11-26T07:55:31.236Z,43.20
2018-11-26T07:57:58.352Z,43.20
2018-11-26T08:00:25.426Z,43.10
2018-11-26T08:02:52.517Z,43.10
2018-11-26T08:05:20.464Z,43.00
2018-11-26T08:07:47.577Z,43.00
2018-11-26T08:10:15.748Z,43.00
2018-11-26T08:12:43.400Z,43.00
2018-11-26T08:15:13.604Z,43.00
2018-11-26T08:17:40.953Z,43.00
2018-11-26T08:20:08.623Z,43.00
2018-11-26T08:22:35.767Z,42.90
2018-11-26T08:25:03.089Z,43.10
2018-11-26T08:27:30.164Z,43.10
2018-11-26T08:29:57.248Z,43.10
2018-11-26T08:32:24.355Z,43.10
2018-11-26T08:34:51.444Z,43.20
2018-11-26T08:37:18.864Z,43.20
2018-11-26T08:39:51.847Z,43.30
2018-11-26T08:42:20.944Z,43.30
2018-11-26T08:44:52.680Z,43.30
2018-11-26T08:47:27.359Z,43.30
2018-11-26T08:49:54.516Z,43.30
2018-11-26T08:52:21.596Z,43.30
2018-11-26T08:54:48.681Z,43.40
2018-11-26T08:57:15.768Z,43.40
2018-11-26T08:59:42.904Z,43.40
2018-11-26T09:02:10.010Z,43.40
2018-11-26T09:04:46.121Z,43.40
2018-11-26T09:07:13.233Z,43.30
2018-11-26T09:09:40.604Z,43.30
2018-11-26T09:12:07.693Z,43.30
2018-11-26T09:14:34.803Z,43.20
2018-11-26T09:17:01.889Z,43.20
2018-11-26T09:19:28.996Z,43.10
2018-11-26T09:21:56.101Z,43.10
2018-11-26T09:24:23.181Z,43.10
2018-11-26T09:26:50.300Z,43.00
2018-11-26T09:29:17.375Z,43.00
2018-11-26T09:31:44.478Z,43.00
2018-11-26T09:34:11.539Z,43.00
2018-11-26T09:36:38.615Z,43.00
2018-11-26T09:39:09.212Z,43.00
2018-11-26T09:41:36.305Z,43.00
2018-11-26T09:44:03.416Z,43.00
2018-11-26T09:46:30.511Z,43.10
2018-11-26T09:48:57.596Z,43.10
2018-11-26T09:51:24.710Z,43.10
2018-11-26T09:53:51.811Z,43.10
2018-11-26T09:56:18.903Z,43.10
2018-11-26T09:58:45.994Z,43.10
2018-11-26T10:01:13.067Z,43.20
2018-11-26T10:03:40.164Z,43.20
2018-11-26T10:06:07.244Z,43.20
2018-11-26T10:08:34.340Z,43.20
2018-11-26T10:11:01.417Z,43.20
2018-11-26T10:13:28.505Z,43.20
2018-11-26T10:15:55.597Z,43.20
2018-11-26T10:18:22.688Z,43.20
2018-11-26T10:20:49.763Z,43.30
2018-11-26T10:23:16.833Z,43.30
2018-11-26T10:25:43.899Z,43.30
2018-11-26T10:28:10.976Z,43.30
2018-11-26T10:30:38.053Z,43.30
2018-11-26T10:33:05.519Z,43.20
2018-11-26T10:35:32.613Z,43.20
2018-11-26T10:37:59.697Z,43.20
2018-11-26T10:40:27.264Z,43.20
2018-11-26T10:42:54.400Z,43.10
2018-11-26T10:45:23.113Z,43.10
2018-11-26T10:47:50.228Z,43.10
2018-11-26T10:50:20.725Z,43.00
2018-11-26T10:52:55.967Z,43.00
2018-11-26T10:55:26.526Z,43.00
2018-11-26T10:57:53.636Z,42.90
2018-11-26T11:00:26.335Z,42.90
2018-11-26T11:02:53.412Z,42.90
2018-11-26T11:05:20.510Z,42.90
2018-11-26T11:07:47.591Z,42.90
2018-11-26T11:10:22.532Z,42.80
2018-11-26T11:12:49.707Z,42.90
2018-11-26T11:15:16.829Z,42.80
2018-11-26T11:17:43.920Z,42.90
2018-11-26T11:20:15.611Z,42.90
2018-11-26T11:22:42.709Z,42.90
2018-11-26T11:25:10.937Z,42.90
2018-11-26T11:27:38.050Z,42.90
2018-11-26T11:30:11.413Z,43.00
2018-11-26T11:32:38.501Z,43.00
2018-11-26T11:35:06.497Z,43.00
2018-11-26T11:37:33.584Z,43.00
2018-11-26T11:40:00.680Z,43.00
2018-11-26T11:42:27.781Z,43.00
2018-11-26T11:44:54.892Z,43.00
2018-11-26T11:47:21.971Z,43.10
2018-11-26T11:49:49.077Z,43.00
2018-11-26T11:52:16.159Z,43.00
2018-11-26T11:54:43.233Z,43.00
2018-11-26T11:57:10.324Z,43.00
2018-11-26T11:59:37.405Z,43.00
2018-11-26T12:02:05.122Z,43.00
2018-11-26T12:04:32.233Z,43.00
2018-11-26T12:06:59.310Z,43.00
2018-11-26T12:09:26.394Z,42.90
2018-11-26T12:11:53.522Z,42.90
2018-11-26T12:14:20.609Z,42.90
2018-11-26T12:16:47.728Z,42.90
2018-11-26T12:19:14.802Z,42.80
2018-11-26T12:21:43.953Z,42.80
2018-11-26T12:24:11.686Z,42.80
2018-11-26T12:26:38.761Z,42.80
2018-11-26T12:29:05.874Z,42.80
2018-11-26T12:31:32.982Z,42.80
2018-11-26T12:34:00.094Z,42.80
2018-11-26T12:36:27.212Z,42.80
2018-11-26T12:38:54.306Z,42.80
2018-11-26T12:41:21.413Z,42.80
2018-11-26T12:43:48.521Z,42.80
2018-11-26T12:46:15.625Z,42.80
2018-11-26T12:48:42.706Z,42.80
2018-11-26T12:51:09.821Z,42.80
2018-11-26T12:53:36.934Z,42.80
2018-11-26T12:56:04.217Z,42.80
2018-11-26T12:58:31.301Z,42.70
2018-11-26T13:00:58.404Z,42.80
2018-11-26T13:03:25.494Z,42.80
2018-11-26T13:05:52.642Z,42.80
2018-11-26T13:08:19.979Z,42.80
2018-11-26T13:10:47.065Z,42.80
2018-11-26T13:13:14.167Z,42.80
2018-11-26T13:15:41.276Z,42.80
2018-11-26T13:18:08.384Z,42.80
2018-11-26T13:20:35.513Z,42.80
2018-11-26T13:23:02.637Z,42.80
2018-11-26T13:25:31.510Z,42.80
2018-11-26T13:27:59.728Z,42.80
2018-11-26T13:30:27.921Z,42.70
2018-11-26T13:32:56.933Z,42.70
2018-11-26T13:35:24.127Z,42.80
2018-11-26T13:37:51.186Z,42.80
2018-11-26T13:40:18.741Z,42.70
2018-11-26T13:42:45.936Z,42.80
2018-11-26T13:45:16.049Z,42.80
2018-11-26T13:47:43.158Z,42.70
2018-11-26T13:50:26.195Z,42.80
2018-11-26T13:52:53.346Z,42.80
2018-11-26T13:55:20.452Z,42.80
2018-11-26T13:57:47.521Z,42.80
2018-11-26T14:00:15.268Z,42.80
2018-11-26T14:02:42.373Z,42.90
2018-11-26T14:05:13.273Z,42.90
2018-11-26T14:07:40.437Z,42.90
2018-11-26T14:10:24.868Z,42.80
2018-11-26T14:12:57.015Z,42.80
2018-11-26T14:15:24.126Z,42.80
2018-11-26T14:17:51.217Z,42.70
2018-11-26T14:20:18.345Z,42.70
2018-11-26T14:22:45.462Z,42.60
2018-11-26T14:25:15.418Z,42.60
2018-11-26T14:27:42.825Z,42.50
2018-11-26T14:30:16.937Z,42.50
2018-11-26T14:32:44.054Z,42.50
2018-11-26T14:35:12.160Z,42.50
2018-11-26T14:37:38.264Z,42.50
2018-11-26T14:40:08.809Z,42.50
2018-11-26T14:42:36.236Z,42.50
2018-11-26T14:45:03.013Z,42.60
2018-11-26T14:47:30.116Z,42.50
2018-11-26T14:49:57.214Z,42.50
2018-11-26T14:52:24.341Z,42.60
2018-11-26T14:54:51.441Z,42.60
2018-11-26T14:57:18.606Z,42.60
2018-11-26T14:59:45.699Z,42.60
2018-11-26T15:02:12.795Z,42.50
2018-11-26T15:04:39.877Z,42.60
2018-11-26T15:07:06.964Z,42.60
2018-11-26T15:09:34.046Z,42.60
2018-11-26T15:12:01.169Z,42.60
2018-11-26T15:14:28.231Z,42.60
2018-11-26T15:16:55.410Z,42.60
2018-11-26T15:19:22.508Z,42.70
2018-11-26T15:21:49.610Z,42.60
2018-11-26T15:24:16.739Z,42.60
2018-11-26T15:26:43.824Z,42.60
2018-11-26T15:29:10.909Z,42.60
2018-11-26T15:31:37.985Z,42.60
2018-11-26T15:34:05.114Z,42.60
2018-11-26T15:36:32.216Z,42.60
2018-11-26T15:38:59.302Z,42.60
2018-11-26T15:41:26.427Z,42.60
2018-11-26T15:43:53.505Z,42.60
2018-11-26T15:46:20.569Z,42.60
2018-11-26T15:48:47.660Z,42.60
2018-11-26T15:51:14.753Z,42.50
2018-11-26T15:53:41.828Z,42.50
2018-11-26T15:56:08.941Z,42.50
2018-11-26T15:58:36.009Z,42.50
2018-11-26T16:01:03.115Z,42.40
2018-11-26T16:03:30.231Z,42.40
2018-11-26T16:05:57.323Z,42.40
2018-11-26T16:08:24.388Z,42.30
2018-11-26T16:10:51.488Z,42.40
2018-11-26T16:13:18.573Z,42.30
2018-11-26T16:15:45.665Z,42.30
2018-11-26T16:18:15.469Z,42.30
2018-11-26T16:20:42.570Z,42.30
2018-11-26T16:23:10.014Z,42.30
2018-11-26T16:25:39.311Z,42.30
2018-11-26T16:28:06.409Z,42.30
2018-11-26T16:30:33.513Z,42.30
2018-11-26T16:33:00.598Z,42.30
2018-11-26T16:35:28.912Z,42.30
2018-11-26T16:37:56.006Z,42.30
2018-11-26T16:40:23.106Z,42.30
2018-11-26T16:42:50.207Z,42.30
2018-11-26T16:45:18.337Z,42.30
2018-11-26T17:20:17.436Z,42.40
2018-11-26T17:22:44.767Z,42.70
2018-11-26T17:25:13.168Z,42.60
2018-11-26T17:27:40.693Z,42.40
2018-11-26T17:30:16.499Z,42.20
2018-11-26T17:32:43.890Z,42.00
2018-11-26T17:35:12.025Z,41.80
2018-11-26T17:37:42.850Z,41.80
2018-11-26T17:40:08.286Z,41.70
2018-11-26T17:42:35.381Z,41.60
2018-11-26T17:45:02.567Z,41.40
2018-11-26T17:47:29.636Z,41.40
2018-11-26T17:49:56.696Z,41.40
2018-11-26T17:52:23.821Z,41.40
2018-11-26T17:54:50.994Z,41.40
2018-11-26T17:57:18.120Z,41.40
2018-11-26T17:59:45.213Z,41.40
2018-11-26T18:02:12.309Z,41.40
2018-11-26T18:04:39.387Z,41.60
2018-11-26T18:07:06.480Z,41.60
2018-11-26T18:09:33.582Z,41.70
2018-11-26T18:12:00.679Z,41.80
2018-11-26T18:14:27.768Z,41.80
2018-11-26T18:16:54.850Z,41.80
2018-11-26T18:19:21.929Z,41.90
2018-11-26T18:21:48.995Z,42.00
2018-11-26T18:24:16.093Z,42.00
2018-11-26T18:26:43.194Z,42.10
2018-11-26T18:29:10.310Z,42.10
2018-11-26T18:31:37.414Z,42.20
2018-11-26T18:34:05.833Z,42.20
2018-11-26T18:36:32.944Z,42.30
2018-11-26T18:39:00.070Z,42.20
2018-11-26T18:41:27.147Z,42.20
2018-11-26T18:43:54.256Z,42.20
2018-11-26T18:46:21.356Z,42.20
2018-11-26T18:48:48.448Z,42.20
2018-11-26T18:51:15.533Z,42.20
2018-11-26T18:53:42.624Z,42.20
2018-11-26T18:56:09.701Z,42.10
2018-11-26T18:58:36.784Z,42.10
2018-11-26T19:01:04.536Z,42.00
2018-11-26T19:03:31.604Z,42.30
2018-11-26T19:05:58.685Z,42.00
2018-11-26T19:08:25.784Z,41.90
2018-11-26T19:10:54.906Z,41.90
2018-11-26T19:13:23.956Z,41.80
2018-11-26T19:15:53.140Z,41.80
2018-11-26T19:18:22.394Z,41.70
2018-11-26T19:20:49.686Z,41.70
2018-11-26T19:23:16.841Z,41.70
2018-11-26T19:25:44.468Z,41.60
2018-11-26T19:28:11.532Z,41.60
2018-11-26T19:30:38.638Z,41.60
2018-11-26T19:33:06.869Z,41.60
2018-11-26T19:35:33.936Z,41.60
2018-11-26T19:38:01.056Z,41.60
2018-11-26T19:40:28.185Z,41.60
2018-11-26T19:42:55.287Z,41.60
2018-11-26T19:45:22.377Z,41.80
2018-11-26T19:47:49.508Z,41.80
2018-11-26T19:50:17.701Z,41.70
2018-11-26T19:52:45.857Z,41.80
2018-11-26T19:55:16.219Z,41.80
2018-11-26T19:57:43.313Z,41.80
2018-11-26T20:00:17.651Z,41.80
2018-11-26T20:02:46.424Z,41.80
2018-11-26T20:05:20.814Z,41.80
2018-11-26T20:07:47.935Z,41.90
2018-11-26T20:10:15.062Z,41.90
2018-11-26T20:12:42.165Z,41.90
2018-11-26T20:15:12.775Z,41.90
2018-11-26T20:17:40.029Z,41.90
2018-11-26T20:20:07.597Z,41.80
2018-11-26T20:22:34.678Z,41.80
2018-11-26T20:25:01.795Z,41.80
2018-11-26T20:27:28.890Z,41.90
2018-11-26T20:29:56.001Z,41.90
2018-11-26T20:32:23.115Z,41.80
2018-11-26T20:34:50.244Z,41.80
2018-11-26T20:37:17.336Z,41.80
2018-11-26T20:39:44.434Z,41.80
2018-11-26T20:42:11.504Z,41.80
2018-11-26T20:44:38.577Z,41.80
2018-11-26T20:47:06.170Z,41.80
2018-11-26T20:49:33.301Z,41.80
2018-11-26T20:52:00.392Z,41.80
2018-11-26T20:54:27.488Z,41.80
2018-11-26T20:56:54.565Z,42.50
2018-11-26T20:59:21.674Z,41.80
2018-11-26T21:01:48.789Z,41.80
2018-11-26T21:04:15.898Z,41.80
2018-11-26T21:06:42.978Z,41.80
2018-11-26T21:09:10.076Z,41.80
2018-11-26T21:11:37.148Z,41.90
2018-11-26T21:14:04.264Z,41.90
2018-11-26T21:16:31.324Z,41.90
2018-11-26T21:18:58.404Z,41.90
2018-11-26T21:21:25.508Z,41.90
2018-11-26T21:23:52.625Z,41.90
2018-11-26T21:26:19.764Z,41.90
2018-11-26T21:28:46.887Z,41.90
2018-11-26T21:31:13.970Z,41.90
2018-11-26T21:33:41.065Z,41.90
2018-11-26T21:36:08.159Z,41.90
2018-11-26T21:38:37.024Z,41.90
2018-11-26T21:41:05.010Z,41.90
2018-11-26T21:43:32.099Z,41.90
2018-11-26T21:45:59.993Z,41.90
2018-11-26T21:48:27.112Z,41.90
2018-11-26T21:50:54.189Z,41.80
2018-11-26T21:53:21.309Z,41.80
2018-11-26T21:55:48.413Z,41.80
2018-11-26T21:58:15.497Z,41.80
2018-11-26T22:00:42.737Z,41.80
2018-11-26T22:03:13.528Z,41.80
2018-11-26T22:05:41.548Z,41.80
2018-11-26T22:08:09.265Z,41.80
2018-11-26T22:10:37.389Z,41.80
2018-11-26T22:13:05.588Z,41.80
2018-11-26T22:15:32.707Z,41.80
2018-11-26T22:17:59.792Z,41.80
2018-11-26T22:20:28.144Z,41.80
2018-11-26T22:22:55.261Z,41.80
2018-11-26T22:25:22.365Z,41.80
2018-11-26T22:27:49.633Z,41.70
2018-11-26T22:30:33.162Z,41.70
2018-11-26T22:33:00.265Z,41.70
2018-11-26T22:35:27.340Z,41.70
2018-11-26T22:37:54.420Z,41.80
2018-11-26T22:40:22.521Z,41.70
2018-11-26T22:42:49.704Z,41.70
2018-11-26T22:45:20.524Z,41.60
2018-11-26T22:47:51.989Z,41.70
2018-11-26T22:50:19.080Z,41.70
2018-11-26T22:52:46.153Z,41.70
2018-11-26T22:55:13.588Z,41.70
2018-11-26T22:57:41.132Z,41.60
2018-11-26T23:00:12.581Z,41.70
2018-11-26T23:02:40.097Z,41.70
2018-11-26T23:05:07.280Z,41.70
2018-11-26T23:07:34.369Z,41.60
2018-11-26T23:10:01.576Z,41.60
2018-11-26T23:12:28.664Z,41.60
2018-11-26T23:14:55.769Z,41.60
2018-11-26T23:17:22.865Z,41.60
2018-11-26T23:19:49.946Z,41.60
2018-11-26T23:22:17.018Z,41.60
2018-11-26T23:24:44.112Z,41.60
2018-11-26T23:27:11.209Z,41.50
2018-11-26T23:29:38.321Z,41.60
2018-11-26T23:32:05.429Z,42.20
2018-11-26T23:34:32.509Z,41.50
2018-11-26T23:36:59.631Z,41.40
2018-11-26T23:39:27.383Z,41.60
2018-11-26T23:41:53.802Z,41.50
2018-11-26T23:44:20.888Z,41.50
2018-11-26T23:46:47.972Z,41.50
2018-11-26T23:49:15.048Z,41.40
2018-11-26T23:51:42.128Z,41.40
2018-11-26T23:54:09.212Z,41.40
2018-11-26T23:56:36.278Z,41.30
2018-11-26T23:59:03.349Z,41.30
